Time;durP1;ratioP1;P1;durP2;ratioP2;P2;SDS_P1;SDS_P2;PMS_P1;PMS_P2;Temp;Humidity;BMP_temperature;BMP_pressure;BME280_temperature;BME280_humidity;BME280_pressure;Samples;Min_cycle;Max_cycle;Signal;HPM_P1;HPM_P2
2021/04/18 00:01:28;;;;;;;3.30;1.15;;;;;10.90;102258.00;;;;5088134;28;20556;-82
2021/04/18 00:03:55;;;;;;;2.60;1.20;;;;;10.90;102260.00;;;;5088418;28;20194;-83
2021/04/18 00:06:22;;;;;;;4.05;1.58;;;;;10.80;102250.00;;;;5076109;28;20195;-83
2021/04/18 00:08:50;;;;;;;2.63;1.27;;;;;10.80;102248.00;;;;5087567;28;20206;-83
2021/04/18 00:11:17;;;;;;;2.38;1.60;;;;;10.80;102259.00;;;;5087412;28;20198;-82
2021/04/18 00:13:45;;;;;;;1.63;1.10;;;;;10.70;102251.00;;;;5082449;28;20218;-83
2021/04/18 00:16:13;;;;;;;4.25;1.40;;;;;10.70;102249.00;;;;5087403;28;20618;-83
2021/04/18 00:18:40;;;;;;;2.28;1.10;;;;;10.70;102252.00;;;;5088019;28;20256;-82
2021/04/18 00:21:07;;;;;;;5.15;1.60;;;;;10.70;102245.00;;;;5087232;28;20202;-83
2021/04/18 00:23:35;;;;;;;3.80;1.85;;;;;10.60;102250.00;;;;5086060;28;20217;-82
2021/04/18 00:26:02;;;;;;;4.53;1.73;;;;;10.60;102244.00;;;;5081665;28;20679;-83
2021/04/18 00:28:30;;;;;;;3.90;1.48;;;;;10.60;102253.00;;;;5083737;28;20201;-83
2021/04/18 00:30:56;;;;;;;3.10;1.30;;;;;10.60;102253.00;;;;5081063;28;20236;-82
2021/04/18 00:33:23;;;;;;;3.42;1.75;;;;;10.60;102243.00;;;;5077100;28;20229;-83
2021/04/18 00:35:50;;;;;;;1.92;1.48;;;;;10.50;102240.00;;;;5079567;28;20194;-83
2021/04/18 00:38:17;;;;;;;3.42;1.63;;;;;10.50;102235.00;;;;5087852;28;20213;-83
2021/04/18 00:40:44;;;;;;;2.72;1.42;;;;;10.50;102227.00;;;;5087585;28;20194;-83
2021/04/18 00:43:12;;;;;;;4.18;1.48;;;;;10.50;102228.00;;;;5085920;28;20607;-83
2021/04/18 00:45:38;;;;;;;4.40;1.23;;;;;10.40;102229.00;;;;5086802;28;20646;-83
2021/04/18 00:48:06;;;;;;;3.92;1.65;;;;;10.40;102223.00;;;;5087475;28;20225;-83
2021/04/18 00:50:34;;;;;;;2.80;1.08;;;;;10.40;102226.00;;;;5067912;28;20234;-81
2021/04/18 00:53:04;;;;;;;2.60;1.20;;;;;10.30;102213.00;;;;5072807;28;20612;-82
2021/04/18 00:55:33;;;;;;;3.58;1.40;;;;;10.30;102221.00;;;;5088814;28;20202;-82
2021/04/18 00:58:01;;;;;;;4.55;1.45;;;;;10.30;102218.00;;;;5087990;28;20259;-82
2021/04/18 01:00:28;;;;;;;2.08;1.30;;;;;10.30;102213.00;;;;5085891;28;20197;-81
2021/04/18 01:02:56;;;;;;;4.15;1.08;;;;;10.20;102210.00;;;;5088620;28;20205;-82
2021/04/18 01:05:22;;;;;;;2.58;1.45;;;;;10.20;102203.00;;;;5087830;28;20198;-82
2021/04/18 01:07:49;;;;;;;4.10;1.65;;;;;10.20;102203.00;;;;5087892;28;20224;-83
2021/04/18 01:10:18;;;;;;;3.58;1.50;;;;;10.20;102203.00;;;;5087424;28;20198;-83
2021/04/18 01:12:45;;;;;;;2.00;1.45;;;;;10.10;102197.00;;;;5094722;28;20189;-82
2021/04/18 01:15:14;;;;;;;3.50;1.75;;;;;10.10;102202.00;;;;5092724;28;20203;-82
2021/04/18 01:17:41;;;;;;;2.55;1.60;;;;;10.10;102200.00;;;;5093274;28;20198;-83
2021/04/18 01:20:11;;;;;;;6.15;2.28;;;;;10.00;102199.00;;;;5093575;28;20213;-82
2021/04/18 01:22:39;;;;;;;3.50;1.60;;;;;10.00;102200.00;;;;5094364;28;20201;-82
2021/04/18 01:25:07;;;;;;;3.97;2.15;;;;;10.00;102194.00;;;;5094041;28;20725;-82
2021/04/18 01:27:36;;;;;;;3.67;1.88;;;;;10.00;102202.00;;;;5094954;28;20198;-82
2021/04/18 01:30:05;;;;;;;3.28;1.70;;;;;9.90;102205.00;;;;5094239;28;20608;-83
2021/04/18 01:32:32;;;;;;;2.70;1.30;;;;;9.90;102195.00;;;;5094061;28;20194;-82
2021/04/18 01:34:59;;;;;;;1.95;1.05;;;;;9.90;102195.00;;;;5094372;28;20560;-83
2021/04/18 01:37:26;;;;;;;2.75;1.40;;;;;9.90;102201.00;;;;5094101;28;20191;-82
2021/04/18 01:39:54;;;;;;;2.55;1.23;;;;;9.80;102201.00;;;;5083130;28;20198;-82
2021/04/18 01:42:22;;;;;;;5.93;1.40;;;;;9.80;102210.00;;;;5095367;28;20206;-82
2021/04/18 01:44:48;;;;;;;3.83;1.65;;;;;9.80;102204.00;;;;5093784;28;20648;-82
2021/04/18 01:47:15;;;;;;;3.28;1.67;;;;;9.80;102201.00;;;;5094830;28;20600;-82
2021/04/18 01:49:42;;;;;;;3.10;1.67;;;;;9.80;102201.00;;;;5094512;28;20255;-82
2021/04/18 01:52:09;;;;;;;2.58;1.25;;;;;9.70;102209.00;;;;5093412;28;20388;-82
2021/04/18 01:54:35;;;;;;;4.05;1.58;;;;;9.70;102201.00;;;;5094172;28;20706;-82
2021/04/18 01:57:03;;;;;;;5.47;1.17;;;;;9.70;102209.00;;;;5093827;28;20202;-82
2021/04/18 01:59:30;;;;;;;3.47;1.33;;;;;9.70;102202.00;;;;5094130;28;20214;-81
2021/04/18 02:02:06;;;;;;;2.67;1.33;;;;;9.60;102200.00;;;;5094412;28;20719;-82
2021/04/18 02:04:33;;;;;;;6.13;1.90;;;;;9.60;102198.00;;;;5093840;28;20190;-82
2021/04/18 02:07:01;;;;;;;2.50;1.55;;;;;9.60;102199.00;;;;5091282;28;20190;-82
2021/04/18 02:09:30;;;;;;;4.53;1.58;;;;;9.60;102197.00;;;;5093865;28;20281;-82
2021/04/18 02:11:57;;;;;;;4.68;2.08;;;;;9.60;102195.00;;;;5093635;28;20206;-83
2021/04/18 02:14:25;;;;;;;2.33;1.45;;;;;9.50;102191.00;;;;5094126;28;20214;-83
2021/04/18 02:16:51;;;;;;;3.00;1.50;;;;;9.50;102196.00;;;;5094244;28;20248;-83
2021/04/18 02:19:18;;;;;;;2.65;1.73;;;;;9.50;102187.00;;;;5094726;28;20640;-82
2021/04/18 02:21:45;;;;;;;2.33;1.38;;;;;9.50;102189.00;;;;5092311;28;20197;-82
2021/04/18 02:24:12;;;;;;;3.53;1.52;;;;;9.50;102182.00;;;;5069893;28;20248;-83
2021/04/18 02:26:39;;;;;;;3.90;1.92;;;;;9.40;102190.00;;;;5091261;28;20199;-83
2021/04/18 02:29:06;;;;;;;3.25;1.45;;;;;9.40;102182.00;;;;5071491;28;20668;-83
2021/04/18 02:31:34;;;;;;;3.97;1.48;;;;;9.40;102186.00;;;;5090056;28;20186;-82
2021/04/18 02:34:01;;;;;;;3.55;1.80;;;;;9.30;102185.00;;;;5090649;28;20229;-83
2021/04/18 02:36:28;;;;;;;3.97;1.45;;;;;9.30;102182.00;;;;5088811;28;20668;-82
2021/04/18 02:38:55;;;;;;;3.08;1.80;;;;;9.30;102192.00;;;;5070479;28;20198;-82
2021/04/18 02:41:23;;;;;;;3.83;1.92;;;;;9.20;102184.00;;;;5075340;28;20194;-82
2021/04/18 02:43:49;;;;;;;3.92;1.70;;;;;9.20;102193.00;;;;5082769;28;20202;-82
2021/04/18 02:46:16;;;;;;;5.00;1.38;;;;;9.20;102188.00;;;;5089474;28;20687;-83
2021/04/18 02:48:44;;;;;;;2.35;1.10;;;;;9.20;102193.00;;;;5090986;28;20663;-82
2021/04/18 02:51:11;;;;;;;1.80;1.30;;;;;9.20;102192.00;;;;5090093;28;20222;-83
2021/04/18 02:53:37;;;;;;;6.28;2.03;;;;;9.10;102194.00;;;;5084343;28;20219;-83
2021/04/18 02:56:05;;;;;;;3.58;1.65;;;;;9.10;102194.00;;;;5074735;28;20198;-83
2021/04/18 02:58:31;;;;;;;1.75;1.35;;;;;9.10;102188.00;;;;5087215;28;20221;-82
2021/04/18 03:00:58;;;;;;;2.55;1.50;;;;;9.10;102192.00;;;;5083007;28;20198;-81
2021/04/18 03:03:25;;;;;;;2.25;1.45;;;;;9.00;102191.00;;;;5081851;28;20198;-82
2021/04/18 03:05:53;;;;;;;4.53;1.25;;;;;9.00;102191.00;;;;5083438;28;20199;-82
2021/04/18 03:08:19;;;;;;;5.35;1.17;;;;;9.00;102191.00;;;;5080667;28;20190;-82
2021/04/18 03:10:46;;;;;;;3.15;1.73;;;;;9.00;102185.00;;;;5089125;28;20194;-83
2021/04/18 03:13:13;;;;;;;4.85;1.80;;;;;9.00;102183.00;;;;5090048;28;20679;-83
2021/04/18 03:15:41;;;;;;;7.82;2.00;;;;;9.00;102182.00;;;;5087901;28;20213;-83
2021/04/18 03:18:08;;;;;;;3.15;1.30;;;;;9.00;102181.00;;;;5089413;28;20202;-82
2021/04/18 03:20:35;;;;;;;3.50;1.58;;;;;9.00;102181.00;;;;5070291;28;20575;-82
2021/04/18 03:23:02;;;;;;;5.82;1.55;;;;;9.00;102184.00;;;;5081319;28;20263;-83
2021/04/18 03:25:29;;;;;;;5.97;1.70;;;;;9.00;102187.00;;;;5075301;28;20195;-83
2021/04/18 03:27:56;;;;;;;5.13;2.33;;;;;9.00;102182.00;;;;5079667;28;20206;-83
2021/04/18 03:30:23;;;;;;;5.25;2.03;;;;;9.10;102181.00;;;;5080447;28;20206;-82
2021/04/18 03:32:50;;;;;;;7.38;2.85;;;;;9.10;102182.00;;;;5089160;28;20191;-82
2021/04/18 03:35:17;;;;;;;7.32;2.20;;;;;9.10;102181.00;;;;5089290;28;20199;-83
2021/04/18 03:37:44;;;;;;;6.05;2.40;;;;;9.10;102175.00;;;;5089782;28;20201;-83
2021/04/18 03:40:12;;;;;;;6.55;1.77;;;;;9.10;102177.00;;;;5089682;28;20251;-83
2021/04/18 03:42:39;;;;;;;8.75;2.28;;;;;9.20;102176.00;;;;5088426;28;20194;-83
2021/04/18 03:45:07;;;;;;;6.75;1.95;;;;;9.20;102173.00;;;;5089487;28;20198;-83
2021/04/18 03:47:34;;;;;;;7.13;2.00;;;;;9.20;102171.00;;;;5089789;28;20194;-83
2021/04/18 03:50:01;;;;;;;3.85;1.50;;;;;9.20;102170.00;;;;5089099;28;20230;-83
2021/04/18 03:52:28;;;;;;;4.55;2.45;;;;;9.20;102171.00;;;;5088293;28;20567;-83
2021/04/18 03:54:55;;;;;;;3.80;1.70;;;;;9.20;102174.00;;;;5087331;28;20222;-83
2021/04/18 03:57:23;;;;;;;4.15;2.00;;;;;9.20;102171.00;;;;5073043;28;20244;-83
2021/04/18 03:59:50;;;;;;;5.65;1.90;;;;;9.10;102171.00;;;;5073824;28;20245;-82
2021/04/18 04:02:17;;;;;;;7.00;1.90;;;;;9.20;102166.00;;;;5087729;28;20213;-82
2021/04/18 04:04:43;;;;;;;3.67;1.98;;;;;9.20;102159.00;;;;5088224;28;20710;-83
2021/04/18 04:07:11;;;;;;;4.55;2.30;;;;;9.10;102158.00;;;;5088094;28;20202;-83
2021/04/18 04:09:38;;;;;;;4.93;1.83;;;;;9.10;102156.00;;;;5087887;28;20206;-83
2021/04/18 04:12:06;;;;;;;3.67;2.00;;;;;9.10;102156.00;;;;5080011;28;20230;-83
2021/04/18 04:14:34;;;;;;;2.75;1.63;;;;;9.10;102158.00;;;;5088173;28;20218;-83
2021/04/18 04:17:01;;;;;;;2.67;1.42;;;;;9.10;102153.00;;;;5086267;28;20653;-83
2021/04/18 04:19:27;;;;;;;2.67;1.60;;;;;9.10;102152.00;;;;5085002;28;20633;-82
2021/04/18 04:21:54;;;;;;;3.75;1.73;;;;;9.10;102147.00;;;;5071566;28;20198;-83
2021/04/18 04:24:21;;;;;;;6.60;1.63;;;;;9.10;102156.00;;;;5070408;28;20191;-82
2021/04/18 04:26:48;;;;;;;4.43;1.73;;;;;9.10;102158.00;;;;5081667;28;20199;-83
2021/04/18 04:29:14;;;;;;;4.20;2.72;;;;;9.00;102160.00;;;;5087826;28;20205;-83
2021/04/18 04:31:42;;;;;;;3.38;1.55;;;;;9.00;102160.00;;;;5079478;28;20265;-82
2021/04/18 04:34:09;;;;;;;3.33;2.00;;;;;9.00;102153.00;;;;5068644;28;21165;-83
2021/04/18 04:36:35;;;;;;;5.00;1.90;;;;;9.00;102161.00;;;;5080629;28;20248;-83
2021/04/18 04:39:02;;;;;;;4.00;1.80;;;;;9.00;102163.00;;;;5087865;28;20197;-83
2021/04/18 04:41:29;;;;;;;3.05;1.63;;;;;9.00;102166.00;;;;5086534;28;20203;-82
2021/04/18 04:43:56;;;;;;;3.60;2.00;;;;;9.00;102167.00;;;;5081371;28;20546;-83
2021/04/18 04:46:23;;;;;;;2.95;1.58;;;;;9.00;102172.00;;;;5082395;28;20206;-83
2021/04/18 04:48:50;;;;;;;4.35;2.17;;;;;8.90;102166.00;;;;5086692;28;20193;-83
2021/04/18 04:51:17;;;;;;;4.13;2.33;;;;;8.90;102169.00;;;;5076177;28;20221;-83
2021/04/18 04:53:43;;;;;;;4.25;1.90;;;;;8.90;102177.00;;;;5083083;28;20217;-82
2021/04/18 04:56:10;;;;;;;3.72;1.95;;;;;8.90;102181.00;;;;5082167;28;20659;-84
2021/04/18 04:58:37;;;;;;;13.20;1.75;;;;;8.90;102184.00;;;;5082643;28;20217;-82
2021/04/18 05:01:04;;;;;;;3.80;1.92;;;;;8.90;102178.00;;;;5085913;28;20202;-83
2021/04/18 05:03:30;;;;;;;7.15;2.40;;;;;8.90;102172.00;;;;5077830;28;20194;-82
2021/04/18 05:05:58;;;;;;;2.42;1.88;;;;;8.90;102182.00;;;;5072775;28;20206;-81
2021/04/18 05:08:25;;;;;;;3.03;2.20;;;;;8.90;102186.00;;;;5076104;28;20201;-82
2021/04/18 05:10:52;;;;;;;4.22;2.15;;;;;8.80;102186.00;;;;5079527;28;20194;-82
2021/04/18 05:13:18;;;;;;;4.10;2.30;;;;;8.90;102179.00;;;;5076223;28;20714;-83
2021/04/18 05:15:45;;;;;;;3.42;1.70;;;;;8.90;102182.00;;;;5084206;28;20198;-81
2021/04/18 05:18:12;;;;;;;3.38;2.28;;;;;8.80;102184.00;;;;5074941;28;20202;-81
2021/04/18 05:20:38;;;;;;;2.83;1.90;;;;;8.90;102184.00;;;;5083638;28;20240;-79
2021/04/18 05:23:06;;;;;;;3.67;1.80;;;;;8.90;102181.00;;;;5078870;28;20202;-81
2021/04/18 05:25:33;;;;;;;23.02;2.67;;;;;8.90;102184.00;;;;5082872;28;20203;-81
2021/04/18 05:27:59;;;;;;;1.90;1.30;;;;;8.90;102189.00;;;;5073839;28;20209;-80
2021/04/18 05:30:27;;;;;;;3.58;2.17;;;;;8.90;102192.00;;;;5084015;28;20191;-81
2021/04/18 05:32:53;;;;;;;2.83;1.85;;;;;8.90;102189.00;;;;5083663;28;20255;-81
2021/04/18 05:35:20;;;;;;;3.47;2.30;;;;;8.90;102194.00;;;;5077519;28;20232;-81
2021/04/18 05:37:47;;;;;;;2.58;1.70;;;;;8.90;102190.00;;;;5079748;28;20200;-81
2021/04/18 05:40:15;;;;;;;2.67;1.75;;;;;9.00;102195.00;;;;5073458;28;20191;-81
2021/04/18 05:42:42;;;;;;;3.15;2.15;;;;;9.00;102184.00;;;;5081226;28;20197;-80
2021/04/18 05:45:09;;;;;;;4.03;2.20;;;;;9.10;102187.00;;;;5071718;28;21075;-80
2021/04/18 05:47:36;;;;;;;3.13;1.95;;;;;9.10;102197.00;;;;5078702;28;20202;-80
2021/04/18 05:50:03;;;;;;;4.07;2.03;;;;;9.20;102195.00;;;;5081066;28;20276;-80
2021/04/18 05:52:30;;;;;;;5.13;1.98;;;;;9.20;102194.00;;;;5078856;28;20206;-81
2021/04/18 05:54:57;;;;;;;3.58;2.20;;;;;9.30;102190.00;;;;5082020;28;20229;-81
2021/04/18 05:57:25;;;;;;;5.57;1.80;;;;;9.30;102195.00;;;;5084165;28;20197;-80
2021/04/18 05:59:51;;;;;;;4.15;2.35;;;;;9.40;102199.00;;;;5090219;28;20214;-80
2021/04/18 06:02:18;;;;;;;3.95;2.22;;;;;9.40;102197.00;;;;5088377;28;20190;-81
2021/04/18 06:04:45;;;;;;;2.70;1.80;;;;;9.50;102193.00;;;;5075854;28;20540;-80
2021/04/18 06:07:12;;;;;;;3.92;2.40;;;;;9.60;102196.00;;;;5077613;28;20195;-80
2021/04/18 06:09:38;;;;;;;6.75;2.65;;;;;9.60;102194.00;;;;5082528;28;20194;-80
2021/04/18 06:12:06;;;;;;;3.38;2.25;;;;;9.70;102192.00;;;;5079463;28;20206;-80
2021/04/18 06:14:33;;;;;;;2.78;2.05;;;;;9.70;102196.00;;;;5089297;28;20226;-80
2021/04/18 06:17:00;;;;;;;4.32;1.75;;;;;9.80;102192.00;;;;5091848;28;20214;-80
2021/04/18 06:19:27;;;;;;;3.22;1.98;;;;;9.80;102204.00;;;;5091078;28;20202;-80
2021/04/18 06:21:55;;;;;;;2.50;1.58;;;;;9.90;102208.00;;;;5090203;28;20664;-80
2021/04/18 06:24:22;;;;;;;2.28;1.70;;;;;10.00;102201.00;;;;5091726;28;20667;-80
2021/04/18 06:26:48;;;;;;;3.50;2.33;;;;;10.10;102202.00;;;;5090199;28;20224;-80
2021/04/18 06:29:15;;;;;;;3.20;1.77;;;;;10.20;102201.00;;;;5092254;28;20592;-81
2021/04/18 06:31:44;;;;;;;2.55;1.77;;;;;10.20;102198.00;;;;5090478;28;20190;-81
2021/04/18 06:34:10;;;;;;;2.60;1.65;;;;;10.30;102204.00;;;;5079834;28;20226;-80
2021/04/18 06:36:37;;;;;;;2.63;1.73;;;;;10.30;102197.00;;;;5087417;28;20198;-80
2021/04/18 06:39:04;;;;;;;2.78;2.05;;;;;10.40;102204.00;;;;5091515;28;20214;-80
2021/04/18 06:41:34;;;;;;;3.78;1.85;;;;;10.40;102198.00;;;;5091143;28;20247;-80
2021/04/18 06:44:02;;;;;;;2.90;1.92;;;;;10.50;102202.00;;;;5090512;28;20596;-80
2021/04/18 06:46:30;;;;;;;4.53;1.80;;;;;10.60;102196.00;;;;5086969;28;20206;-81
2021/04/18 06:48:59;;;;;;;2.17;1.65;;;;;10.60;102200.00;;;;5078662;28;20206;-80
2021/04/18 06:51:26;;;;;;;3.67;1.88;;;;;10.80;102191.00;;;;5081277;28;20265;-80
2021/04/18 06:53:53;;;;;;;9.32;2.28;;;;;10.80;102189.00;;;;5091111;28;20251;-80
2021/04/18 06:56:19;;;;;;;3.70;2.00;;;;;10.90;102188.00;;;;5089882;28;20194;-81
2021/04/18 06:58:46;;;;;;;3.10;2.13;;;;;11.10;102183.00;;;;5089484;28;20214;-81
2021/04/18 07:01:13;;;;;;;2.72;1.77;;;;;11.20;102198.00;;;;5089830;28;20668;-80
2021/04/18 07:03:40;;;;;;;3.50;2.20;;;;;11.30;102197.00;;;;5089912;28;20562;-81
2021/04/18 07:06:08;;;;;;;3.78;2.63;;;;;11.40;102197.00;;;;5073657;28;20212;-80
2021/04/18 07:08:36;;;;;;;4.22;2.35;;;;;11.60;102209.00;;;;5085929;28;20238;-81
2021/04/18 07:11:18;;;;;;;3.47;2.30;;;;;11.60;102207.00;;;;5076990;28;20252;-80
2021/04/18 07:13:46;;;;;;;4.85;2.63;;;;;11.80;102213.00;;;;5089737;28;20214;-81
2021/04/18 07:16:24;;;;;;;4.93;2.90;;;;;11.90;102218.00;;;;5088061;28;20205;-80
2021/04/18 07:18:51;;;;;;;3.22;2.20;;;;;12.10;102214.00;;;;5087367;28;20664;-81
2021/04/18 07:21:19;;;;;;;4.90;2.83;;;;;12.20;102213.00;;;;5070943;28;20210;-81
2021/04/18 07:23:46;;;;;;;3.58;2.50;;;;;12.20;102211.00;;;;5090330;28;20195;-80
2021/04/18 07:26:22;;;;;;;3.00;2.20;;;;;12.20;102214.00;;;;5089645;28;20194;-79
2021/04/18 07:28:50;;;;;;;4.78;2.85;;;;;12.30;102228.00;;;;5072776;28;20367;-79
2021/04/18 07:31:31;;;;;;;4.82;2.40;;;;;12.40;102217.00;;;;5085533;28;20210;-79
2021/04/18 07:34:03;;;;;;;3.60;2.47;;;;;12.50;102216.00;;;;5088428;28;20248;-79
2021/04/18 07:36:32;;;;;;;4.93;2.85;;;;;12.60;102207.00;;;;5077379;28;20206;-78
2021/04/18 07:38:58;;;;;;;4.25;2.40;;;;;12.60;102214.00;;;;5083105;28;20194;-79
2021/04/18 07:41:26;;;;;;;5.25;3.03;;;;;12.70;102211.00;;;;5084134;28;20953;-79
2021/04/18 07:43:53;;;;;;;4.25;2.45;;;;;12.80;102200.00;;;;5075826;28;20259;-78
2021/04/18 07:46:20;;;;;;;4.05;2.53;;;;;12.90;102191.00;;;;5078318;28;20205;-79
2021/04/18 07:48:48;;;;;;;4.00;2.33;;;;;13.00;102191.00;;;;5081285;28;20338;-79
2021/04/18 07:51:16;;;;;;;5.55;3.45;;;;;13.10;102197.00;;;;5085166;28;20602;-79
2021/04/18 07:53:45;;;;;;;4.05;2.95;;;;;13.30;102199.00;;;;5073934;28;20231;-79
2021/04/18 07:56:13;;;;;;;4.47;3.08;;;;;13.40;102210.00;;;;5081972;28;20201;-81
2021/04/18 07:58:40;;;;;;;4.93;3.38;;;;;13.50;102217.00;;;;5078200;28;20687;-79
2021/04/18 08:01:08;;;;;;;4.30;3.20;;;;;13.60;102216.00;;;;5074806;28;20191;-80
2021/04/18 08:03:36;;;;;;;4.28;3.15;;;;;13.80;102218.00;;;;5087482;28;20210;-79
2021/04/18 08:06:04;;;;;;;4.25;3.40;;;;;13.80;102215.00;;;;5086609;28;20202;-79
2021/04/18 08:08:52;;;;;;;4.72;2.92;;;;;13.90;102207.00;;;;5084996;28;20291;-79
2021/04/18 08:11:22;;;;;;;3.63;3.08;;;;;14.00;102210.00;;;;5089372;28;20206;-79
2021/04/18 08:13:50;;;;;;;4.97;3.35;;;;;14.10;102216.00;;;;5088344;28;20233;-79
2021/04/18 08:16:27;;;;;;;5.18;3.17;;;;;14.20;102221.00;;;;5088970;28;20206;-79
2021/04/18 08:19:04;;;;;;;6.03;3.40;;;;;14.40;102221.00;;;;5088291;28;20209;-80
2021/04/18 08:21:34;;;;;;;6.03;3.92;;;;;14.40;102216.00;;;;5074017;28;20194;-79
2021/04/18 08:24:04;;;;;;;5.18;3.80;;;;;14.50;102217.00;;;;5088751;28;20214;-79
2021/04/18 08:26:32;;;;;;;4.82;3.85;;;;;14.50;102209.00;;;;5089158;28;20194;-80
2021/04/18 08:29:10;;;;;;;5.30;3.67;;;;;14.50;102205.00;;;;5071820;28;20206;-80
2021/04/18 08:31:55;;;;;;;4.03;2.80;;;;;14.60;102211.00;;;;5074128;28;20191;-80
2021/04/18 08:34:24;;;;;;;4.43;3.00;;;;;14.70;102207.00;;;;5077050;28;20210;-79
2021/04/18 08:36:53;;;;;;;5.20;3.42;;;;;14.80;102202.00;;;;5086034;28;20201;-79
2021/04/18 08:39:28;;;;;;;5.68;3.20;;;;;14.80;102203.00;;;;5069759;28;20213;-79
2021/04/18 08:41:57;;;;;;;4.72;3.92;;;;;14.90;102202.00;;;;5068304;28;20206;-79
2021/04/18 08:44:26;;;;;;;7.07;3.63;;;;;14.90;102196.00;;;;5068269;28;20202;-78
2021/04/18 08:46:56;;;;;;;6.82;3.92;;;;;15.00;102196.00;;;;5072343;28;20651;-78
2021/04/18 08:49:33;;;;;;;6.13;3.67;;;;;15.00;102200.00;;;;5081410;28;20668;-79
2021/04/18 08:52:01;;;;;;;5.22;4.10;;;;;15.10;102196.00;;;;5084317;28;20205;-79
2021/04/18 08:54:33;;;;;;;5.00;3.47;;;;;15.10;102201.00;;;;5072708;28;20284;-78
2021/04/18 08:57:04;;;;;;;3.78;2.78;;;;;15.20;102203.00;;;;5079958;28;20206;-78
2021/04/18 08:59:31;;;;;;;6.03;3.63;;;;;15.20;102198.00;;;;5068650;28;20221;-78
2021/04/18 09:02:03;;;;;;;6.75;3.05;;;;;15.30;102203.00;;;;5075888;28;20263;-77
2021/04/18 09:04:32;;;;;;;3.95;2.88;;;;;15.40;102206.00;;;;5086006;28;20198;-78
2021/04/18 09:06:59;;;;;;;5.60;3.25;;;;;15.50;102209.00;;;;5086459;28;20281;-78
2021/04/18 09:09:27;;;;;;;3.92;3.17;;;;;15.60;102204.00;;;;5069094;28;20209;-78
2021/04/18 09:11:55;;;;;;;5.05;3.67;;;;;15.70;102204.00;;;;5077000;28;20676;-78
2021/04/18 09:14:28;;;;;;;5.00;3.83;;;;;15.70;102209.00;;;;5087243;28;20218;-78
2021/04/18 09:17:07;;;;;;;3.28;2.60;;;;;15.80;102201.00;;;;5087472;28;20225;-78
2021/04/18 09:19:35;;;;;;;4.03;2.90;;;;;16.00;102199.00;;;;5082296;28;20223;-79
2021/04/18 09:22:08;;;;;;;5.28;3.17;;;;;16.00;102202.00;;;;5086413;28;20683;-78
2021/04/18 09:24:46;;;;;;;4.57;3.20;;;;;16.10;102197.00;;;;5087070;28;20564;-78
2021/04/18 09:27:16;;;;;;;3.20;2.42;;;;;16.20;102195.00;;;;5088721;28;20205;-78
2021/04/18 09:29:45;;;;;;;4.07;2.55;;;;;16.40;102194.00;;;;5087811;28;20204;-78
2021/04/18 09:32:14;;;;;;;3.72;2.45;;;;;16.50;102191.00;;;;5084619;28;20201;-79
2021/04/18 09:34:42;;;;;;;4.30;2.10;;;;;16.60;102193.00;;;;5091595;28;20234;-78
2021/04/18 09:37:15;;;;;;;2.60;2.20;;;;;16.70;102190.00;;;;5081090;28;20218;-78
2021/04/18 09:39:42;;;;;;;3.15;2.47;;;;;16.90;102188.00;;;;5088175;28;20197;-78
2021/04/18 09:42:10;;;;;;;3.38;2.25;;;;;17.00;102182.00;;;;5080634;28;20705;-79
2021/04/18 09:44:43;;;;;;;3.80;1.73;;;;;17.10;102179.00;;;;5072343;28;20629;-78
2021/04/18 09:47:19;;;;;;;3.05;2.25;;;;;17.20;102179.00;;;;5072267;28;20347;-79
2021/04/18 09:49:48;;;;;;;3.05;1.95;;;;;17.30;102176.00;;;;5088886;28;20213;-79
2021/04/18 09:52:27;;;;;;;2.55;1.70;;;;;17.40;102188.00;;;;5090254;28;20204;-79
2021/04/18 09:54:54;;;;;;;4.28;2.17;;;;;17.60;102179.00;;;;5080111;28;20222;-79
2021/04/18 09:57:23;;;;;;;4.07;2.13;;;;;17.70;102182.00;;;;5090703;28;20263;-79
2021/04/18 10:00:10;;;;;;;2.45;1.92;;;;;17.80;102183.00;;;;5081509;28;20513;-81
2021/04/18 10:02:38;;;;;;;2.70;2.28;;;;;18.00;102180.00;;;;5072361;28;20199;-79
2021/04/18 10:05:11;;;;;;;3.28;2.70;;;;;18.10;102183.00;;;;5077960;28;20209;-79
2021/04/18 10:07:38;;;;;;;2.72;1.90;;;;;18.20;102185.00;;;;5088743;28;20726;-79
2021/04/18 10:10:06;;;;;;;2.97;1.83;;;;;18.20;102178.00;;;;5089857;28;20698;-79
2021/04/18 10:12:52;;;;;;;2.97;2.00;;;;;18.30;102181.00;;;;5089188;28;20208;-80
2021/04/18 10:15:20;;;;;;;2.50;2.08;;;;;18.50;102174.00;;;;5069981;28;20230;-80
2021/04/18 10:17:48;;;;;;;2.17;1.70;;;;;18.60;102184.00;;;;5070199;28;20207;-81
2021/04/18 10:20:26;;;;;;;3.28;1.85;;;;;18.60;102175.00;;;;5069388;28;20649;-80
2021/04/18 10:23:07;;;;;;;2.55;1.70;;;;;18.70;102176.00;;;;5081423;28;20824;-80
2021/04/18 10:25:35;;;;;;;2.72;2.08;;;;;18.90;102164.00;;;;5089469;28;20749;-80
2021/04/18 10:28:02;;;;;;;3.55;2.00;;;;;19.00;102173.00;;;;5091228;28;20782;-81
2021/04/18 10:30:31;;;;;;;2.40;1.85;;;;;19.10;102174.00;;;;5091543;28;20228;-82
2021/04/18 10:32:58;;;;;;;3.55;2.20;;;;;19.20;102168.00;;;;5090156;28;20296;-80
2021/04/18 10:35:25;;;;;;;2.60;1.75;;;;;19.30;102168.00;;;;5090389;28;20261;-79
2021/04/18 10:37:52;;;;;;;2.95;2.00;;;;;19.40;102162.00;;;;5088062;28;20190;-79
2021/04/18 10:40:22;;;;;;;1.98;1.58;;;;;19.50;102159.00;;;;5084259;28;20580;-79
2021/04/18 10:42:49;;;;;;;2.05;1.50;;;;;19.60;102159.00;;;;5070319;28;20294;-79
2021/04/18 10:45:17;;;;;;;2.03;1.55;;;;;19.70;102157.00;;;;5081897;28;20602;-79
2021/04/18 10:47:44;;;;;;;5.00;3.05;;;;;19.80;102156.00;;;;5072039;28;20285;-80
2021/04/18 10:50:13;;;;;;;2.28;1.58;;;;;19.90;102161.00;;;;5068462;28;20243;-79
2021/04/18 10:52:40;;;;;;;2.72;1.55;;;;;20.00;102151.00;;;;5079990;28;20999;-80
2021/04/18 10:55:08;;;;;;;3.97;2.10;;;;;20.10;102147.00;;;;5073350;28;20620;-79
2021/04/18 10:57:35;;;;;;;3.50;1.73;;;;;20.20;102147.00;;;;5089459;28;20660;-79
2021/04/18 11:00:04;;;;;;;3.90;2.08;;;;;20.30;102141.00;;;;5090317;28;20908;-78
2021/04/18 11:02:30;;;;;;;2.88;1.80;;;;;20.40;102143.00;;;;5090679;28;20202;-79
2021/04/18 11:04:58;;;;;;;3.28;2.10;;;;;20.50;102135.00;;;;5070799;28;20629;-79
2021/04/18 11:07:24;;;;;;;4.55;1.95;;;;;20.60;102139.00;;;;5074799;28;20210;-80
2021/04/18 11:09:51;;;;;;;2.88;2.05;;;;;20.70;102131.00;;;;5078143;28;20580;-79
2021/04/18 11:12:19;;;;;;;2.72;2.10;;;;;20.80;102134.00;;;;5080586;28;20251;-78
2021/04/18 11:14:47;;;;;;;5.32;2.42;;;;;20.90;102130.00;;;;5090002;28;20226;-78
2021/04/18 11:17:13;;;;;;;4.70;2.08;;;;;21.00;102126.00;;;;5091099;28;20214;-79
2021/04/18 11:19:40;;;;;;;2.15;1.50;;;;;21.00;102128.00;;;;5090010;28;20251;-79
2021/04/18 11:22:08;;;;;;;2.80;1.92;;;;;21.00;102114.00;;;;5090114;28;20255;-78
2021/04/18 11:24:35;;;;;;;5.05;2.45;;;;;21.10;102118.00;;;;5076084;28;20193;-78
2021/04/18 11:27:02;;;;;;;4.50;2.10;;;;;21.10;102108.00;;;;5089624;28;20627;-78
2021/04/18 11:29:30;;;;;;;2.78;1.80;;;;;21.10;102116.00;;;;5089028;28;20198;-80
2021/04/18 11:31:56;;;;;;;7.85;2.33;;;;;21.20;102111.00;;;;5069602;28;20233;-79
2021/04/18 11:34:23;;;;;;;5.28;2.00;;;;;21.30;102107.00;;;;5080201;28;20226;-79
2021/04/18 11:36:51;;;;;;;3.20;2.28;;;;;21.40;102108.00;;;;5082631;28;20269;-79
2021/04/18 11:39:19;;;;;;;4.00;2.10;;;;;21.50;102106.00;;;;5086169;28;20197;-76
2021/04/18 11:41:45;;;;;;;3.58;2.10;;;;;21.60;102106.00;;;;5075183;28;20241;-76
2021/04/18 11:44:14;;;;;;;2.25;2.03;;;;;21.60;102102.00;;;;5088503;28;20213;-78
2021/04/18 11:46:42;;;;;;;3.92;2.33;;;;;21.70;102093.00;;;;5088726;28;20740;-78
2021/04/18 11:49:10;;;;;;;3.92;2.13;;;;;21.70;102099.00;;;;5088507;28;20960;-77
2021/04/18 11:51:37;;;;;;;3.42;2.08;;;;;21.70;102097.00;;;;5076789;28;20238;-78
2021/04/18 11:54:04;;;;;;;3.20;2.08;;;;;21.70;102097.00;;;;5080396;28;20226;-78
2021/04/18 11:56:32;;;;;;;3.25;2.13;;;;;21.70;102097.00;;;;5080894;28;20205;-77
2021/04/18 11:58:59;;;;;;;2.90;2.13;;;;;21.70;102102.00;;;;5088027;28;20309;-79
2021/04/18 12:01:28;;;;;;;7.05;2.30;;;;;21.70;102100.00;;;;5042976;28;20574;-77
2021/04/18 12:03:55;;;;;;;3.63;2.15;;;;;21.80;102098.00;;;;4969139;28;20190;-77
2021/04/18 12:06:22;;;;;;;3.38;2.30;;;;;21.80;102097.00;;;;5086000;28;20198;-75
2021/04/18 12:08:48;;;;;;;5.53;2.35;;;;;21.80;102105.00;;;;5084400;28;20236;-76
2021/04/18 12:11:15;;;;;;;3.33;2.35;;;;;21.90;102099.00;;;;5072159;28;20201;-76
2021/04/18 12:13:45;;;;;;;2.50;2.28;;;;;22.00;102094.00;;;;5089283;28;20206;-76
2021/04/18 12:16:14;;;;;;;2.85;1.83;;;;;22.10;102094.00;;;;5088418;28;20793;-77